sensor_id;sensor_type;location;lat;lon;timestamp;temperature;humidity
39621;DHT22;25309;48.686;9.170;2023-04-24T00:01:06;10.30;99.90
39621;DHT22;25309;48.686;9.170;2023-04-24T00:03:36;10.30;99.90
39621;DHT22;25309;48.686;9.170;2023-04-24T00:06:04;10.30;99.90
39621;DHT22;25309;48.686;9.170;2023-04-24T00:08:32;10.30;99.90
39621;DHT22;25309;48.686;9.170;2023-04-24T00:10:59;10.30;99.90
39621;DHT22;25309;48.686;9.170;2023-04-24T00:13:26;10.30;99.90
39621;DHT22;25309;48.686;9.170;2023-04-24T00:15:55;10.30;99.90
39621;DHT22;25309;48.686;9.170;2023-04-24T00:18:22;10.30;99.90
39621;DHT22;25309;48.686;9.170;2023-04-24T00:20:50;10.30;99.90
39621;DHT22;25309;48.686;9.170;2023-04-24T00:23:17;10.30;99.90
39621;DHT22;25309;48.686;9.170;2023-04-24T00:25:44;10.30;99.90
39621;DHT22;25309;48.686;9.170;2023-04-24T00:28:11;10.30;99.90
39621;DHT22;25309;48.686;9.170;2023-04-24T00:30:38;10.30;99.90
39621;DHT22;25309;48.686;9.170;2023-04-24T00:33:05;10.40;99.90
39621;DHT22;25309;48.686;9.170;2023-04-24T00:35:32;10.40;99.90
39621;DHT22;25309;48.686;9.170;2023-04-24T00:38:00;10.40;99.90
39621;DHT22;25309;48.686;9.170;2023-04-24T00:40:27;10.50;99.90
39621;DHT22;25309;48.686;9.170;2023-04-24T00:42:54;10.50;99.90
39621;DHT22;25309;48.686;9.170;2023-04-24T00:45:22;10.50;99.90
39621;DHT22;25309;48.686;9.170;2023-04-24T00:47:50;10.50;99.90
39621;DHT22;25309;48.686;9.170;2023-04-24T00:50:20;10.50;99.90
39621;DHT22;25309;48.686;9.170;2023-04-24T00:52:48;10.50;99.90
39621;DHT22;25309;48.686;9.170;2023-04-24T00:55:16;10.60;99.90
39621;DHT22;25309;48.686;9.170;2023-04-24T00:57:44;10.60;99.90
39621;DHT22;25309;48.686;9.170;2023-04-24T01:00:12;10.60;99.90
39621;DHT22;25309;48.686;9.170;2023-04-24T01:02:41;10.60;99.90
39621;DHT22;25309;48.686;9.170;2023-04-24T01:05:13;10.70;99.90
39621;DHT22;25309;48.686;9.170;2023-04-24T01:07:41;10.70;99.90
39621;DHT22;25309;48.686;9.170;2023-04-24T01:10:11;10.70;99.90
39621;DHT22;25309;48.686;9.170;2023-04-24T01:12:40;10.70;99.90
39621;DHT22;25309;48.686;9.170;2023-04-24T01:15:09;10.70;99.90
39621;DHT22;25309;48.686;9.170;2023-04-24T01:17:36;10.70;99.90
39621;DHT22;25309;48.686;9.170;2023-04-24T01:20:04;10.70;99.90
39621;DHT22;25309;48.686;9.170;2023-04-24T01:22:34;10.80;99.90
39621;DHT22;25309;48.686;9.170;2023-04-24T01:25:01;10.80;99.90
39621;DHT22;25309;48.686;9.170;2023-04-24T01:27:29;10.80;99.90
39621;DHT22;25309;48.686;9.170;2023-04-24T01:29:57;10.80;99.90
39621;DHT22;25309;48.686;9.170;2023-04-24T01:32:24;10.80;99.90
39621;DHT22;25309;48.686;9.170;2023-04-24T01:34:51;10.80;99.90
39621;DHT22;25309;48.686;9.170;2023-04-24T01:37:18;10.80;99.90
39621;DHT22;25309;48.686;9.170;2023-04-24T01:39:46;10.80;99.90
39621;DHT22;25309;48.686;9.170;2023-04-24T01:42:14;10.80;99.90
39621;DHT22;25309;48.686;9.170;2023-04-24T01:44:41;10.70;99.90
39621;DHT22;25309;48.686;9.170;2023-04-24T01:47:08;10.70;99.90
39621;DHT22;25309;48.686;9.170;2023-04-24T01:49:37;10.70;99.90
39621;DHT22;25309;48.686;9.170;2023-04-24T01:52:04;10.70;99.90
39621;DHT22;25309;48.686;9.170;2023-04-24T01:54:31;10.70;99.90
39621;DHT22;25309;48.686;9.170;2023-04-24T01:57:00;10.70;99.90
39621;DHT22;25309;48.686;9.170;2023-04-24T01:59:29;10.70;99.90
39621;DHT22;25309;48.686;9.170;2023-04-24T02:01:56;10.60;99.90
39621;DHT22;25309;48.686;9.170;2023-04-24T02:04:23;10.50;99.90
39621;DHT22;25309;48.686;9.170;2023-04-24T02:06:51;10.50;99.90
39621;DHT22;25309;48.686;9.170;2023-04-24T02:09:18;10.50;99.90
39621;DHT22;25309;48.686;9.170;2023-04-24T02:11:45;10.40;99.90
39621;DHT22;25309;48.686;9.170;2023-04-24T02:14:13;10.40;99.90
39621;DHT22;25309;48.686;9.170;2023-04-24T02:16:40;10.40;99.90
39621;DHT22;25309;48.686;9.170;2023-04-24T02:19:07;10.40;99.90
39621;DHT22;25309;48.686;9.170;2023-04-24T02:21:34;10.40;99.90
39621;DHT22;25309;48.686;9.170;2023-04-24T02:24:01;10.40;99.90
39621;DHT22;25309;48.686;9.170;2023-04-24T02:26:28;10.30;99.90
39621;DHT22;25309;48.686;9.170;2023-04-24T02:28:55;10.30;99.90
39621;DHT22;25309;48.686;9.170;2023-04-24T02:31:24;10.30;99.90
39621;DHT22;25309;48.686;9.170;2023-04-24T02:33:51;10.30;99.90
39621;DHT22;25309;48.686;9.170;2023-04-24T02:36:18;10.30;99.90
39621;DHT22;25309;48.686;9.170;2023-04-24T02:38:45;10.30;99.90
39621;DHT22;25309;48.686;9.170;2023-04-24T02:41:12;10.30;99.90
39621;DHT22;25309;48.686;9.170;2023-04-24T02:43:39;10.30;99.90
39621;DHT22;25309;48.686;9.170;2023-04-24T02:46:06;10.30;99.90
39621;DHT22;25309;48.686;9.170;2023-04-24T02:48:34;10.40;99.90
39621;DHT22;25309;48.686;9.170;2023-04-24T02:51:01;10.40;99.90
39621;DHT22;25309;48.686;9.170;2023-04-24T02:53:28;10.40;99.90
39621;DHT22;25309;48.686;9.170;2023-04-24T02:55:57;10.40;99.90
39621;DHT22;25309;48.686;9.170;2023-04-24T02:58:24;10.40;99.90
39621;DHT22;25309;48.686;9.170;2023-04-24T03:00:53;10.40;99.90
39621;DHT22;25309;48.686;9.170;2023-04-24T03:03:20;10.50;99.90
39621;DHT22;25309;48.686;9.170;2023-04-24T03:05:48;10.50;99.90
39621;DHT22;25309;48.686;9.170;2023-04-24T03:08:16;10.50;99.90
39621;DHT22;25309;48.686;9.170;2023-04-24T03:10:43;10.50;99.90
39621;DHT22;25309;48.686;9.170;2023-04-24T03:13:15;10.50;99.90
39621;DHT22;25309;48.686;9.170;2023-04-24T03:15:42;10.40;99.90
39621;DHT22;25309;48.686;9.170;2023-04-24T03:18:09;10.40;99.90
39621;DHT22;25309;48.686;9.170;2023-04-24T03:20:36;10.40;99.90
39621;DHT22;25309;48.686;9.170;2023-04-24T03:23:05;10.40;99.90
39621;DHT22;25309;48.686;9.170;2023-04-24T03:25:32;10.30;99.90
39621;DHT22;25309;48.686;9.170;2023-04-24T03:28:00;10.30;99.90
39621;DHT22;25309;48.686;9.170;2023-04-24T03:30:38;10.30;99.90
39621;DHT22;25309;48.686;9.170;2023-04-24T03:33:07;10.20;99.90
39621;DHT22;25309;48.686;9.170;2023-04-24T03:35:37;10.20;99.90
39621;DHT22;25309;48.686;9.170;2023-04-24T03:38:10;10.10;99.90
39621;DHT22;25309;48.686;9.170;2023-04-24T03:40:55;10.20;99.90
39621;DHT22;25309;48.686;9.170;2023-04-24T03:43:34;10.10;99.90
39621;DHT22;25309;48.686;9.170;2023-04-24T03:46:02;10.10;99.90
39621;DHT22;25309;48.686;9.170;2023-04-24T03:48:31;10.10;99.90
39621;DHT22;25309;48.686;9.170;2023-04-24T03:50:58;10.00;99.90
39621;DHT22;25309;48.686;9.170;2023-04-24T03:53:27;10.00;99.90
39621;DHT22;25309;48.686;9.170;2023-04-24T03:55:55;9.90;99.90
39621;DHT22;25309;48.686;9.170;2023-04-24T03:58:22;9.90;99.90
39621;DHT22;25309;48.686;9.170;2023-04-24T04:00:50;9.80;99.90
39621;DHT22;25309;48.686;9.170;2023-04-24T04:03:38;9.80;99.90
39621;DHT22;25309;48.686;9.170;2023-04-24T04:06:06;9.70;99.90
39621;DHT22;25309;48.686;9.170;2023-04-24T04:08:34;9.70;99.90
39621;DHT22;25309;48.686;9.170;2023-04-24T04:11:02;9.70;99.90
39621;DHT22;25309;48.686;9.170;2023-04-24T04:13:31;9.80;99.90
39621;DHT22;25309;48.686;9.170;2023-04-24T04:15:58;9.80;99.90
39621;DHT22;25309;48.686;9.170;2023-04-24T04:18:25;9.80;99.90
39621;DHT22;25309;48.686;9.170;2023-04-24T04:20:52;9.80;99.90
39621;DHT22;25309;48.686;9.170;2023-04-24T04:23:19;9.90;99.90
39621;DHT22;25309;48.686;9.170;2023-04-24T04:25:58;9.90;99.90
39621;DHT22;25309;48.686;9.170;2023-04-24T04:28:35;9.90;99.90
39621;DHT22;25309;48.686;9.170;2023-04-24T04:31:04;10.00;99.90
39621;DHT22;25309;48.686;9.170;2023-04-24T04:33:31;10.00;99.90
39621;DHT22;25309;48.686;9.170;2023-04-24T04:35:58;10.00;99.90
39621;DHT22;25309;48.686;9.170;2023-04-24T04:38:29;10.00;99.90
39621;DHT22;25309;48.686;9.170;2023-04-24T04:41:05;10.00;99.90
39621;DHT22;25309;48.686;9.170;2023-04-24T04:43:32;10.00;99.90
39621;DHT22;25309;48.686;9.170;2023-04-24T04:46:00;9.80;99.90
39621;DHT22;25309;48.686;9.170;2023-04-24T04:48:48;9.60;99.90
39621;DHT22;25309;48.686;9.170;2023-04-24T04:51:15;9.40;99.90
39621;DHT22;25309;48.686;9.170;2023-04-24T04:53:42;9.30;99.90
39621;DHT22;25309;48.686;9.170;2023-04-24T04:56:11;9.30;99.90
39621;DHT22;25309;48.686;9.170;2023-04-24T04:58:43;9.20;99.90
39621;DHT22;25309;48.686;9.170;2023-04-24T05:01:14;9.20;99.90
39621;DHT22;25309;48.686;9.170;2023-04-24T05:03:44;9.20;99.90
39621;DHT22;25309;48.686;9.170;2023-04-24T05:06:14;9.20;99.90
39621;DHT22;25309;48.686;9.170;2023-04-24T05:08:43;9.20;99.90
39621;DHT22;25309;48.686;9.170;2023-04-24T05:11:21;9.20;99.90
39621;DHT22;25309;48.686;9.170;2023-04-24T05:13:48;9.20;99.90
39621;DHT22;25309;48.686;9.170;2023-04-24T05:16:18;9.30;99.90
39621;DHT22;25309;48.686;9.170;2023-04-24T05:18:47;9.30;99.90
39621;DHT22;25309;48.686;9.170;2023-04-24T05:21:18;9.30;99.90
39621;DHT22;25309;48.686;9.170;2023-04-24T05:23:49;9.30;99.90
39621;DHT22;25309;48.686;9.170;2023-04-24T05:26:25;9.30;99.90
39621;DHT22;25309;48.686;9.170;2023-04-24T05:28:53;9.30;99.90
39621;DHT22;25309;48.686;9.170;2023-04-24T05:31:20;9.30;99.90
39621;DHT22;25309;48.686;9.170;2023-04-24T05:33:48;9.30;99.90
39621;DHT22;25309;48.686;9.170;2023-04-24T05:36:15;9.30;99.90
39621;DHT22;25309;48.686;9.170;2023-04-24T05:38:42;9.30;99.90
39621;DHT22;25309;48.686;9.170;2023-04-24T05:41:09;9.30;99.90
39621;DHT22;25309;48.686;9.170;2023-04-24T05:43:37;9.30;99.90
39621;DHT22;25309;48.686;9.170;2023-04-24T05:46:04;9.40;99.90
39621;DHT22;25309;48.686;9.170;2023-04-24T05:48:32;9.40;99.90
39621;DHT22;25309;48.686;9.170;2023-04-24T05:51:01;9.50;99.90
39621;DHT22;25309;48.686;9.170;2023-04-24T05:53:28;9.50;99.90
39621;DHT22;25309;48.686;9.170;2023-04-24T05:55:55;9.60;99.90
39621;DHT22;25309;48.686;9.170;2023-04-24T05:58:22;9.60;99.90
39621;DHT22;25309;48.686;9.170;2023-04-24T06:00:51;9.60;99.90
39621;DHT22;25309;48.686;9.170;2023-04-24T06:03:18;9.60;99.90
39621;DHT22;25309;48.686;9.170;2023-04-24T06:05:49;9.70;99.90
39621;DHT22;25309;48.686;9.170;2023-04-24T06:08:16;9.70;99.90
